createdAt,value
2022-10-25T00:01:14.774Z,2.05
2022-10-25T00:03:42.224Z,3.55
2022-10-25T00:06:09.770Z,2.88
2022-10-25T00:08:36.969Z,2.20
2022-10-25T00:11:04.468Z,3.90
2022-10-25T00:13:31.601Z,2.13
2022-10-25T00:16:00.046Z,2.63
2022-10-25T00:18:27.217Z,3.13
2022-10-25T00:20:54.961Z,2.95
2022-10-25T00:23:22.104Z,3.00
2022-10-25T00:25:49.326Z,2.33
2022-10-25T00:28:16.416Z,2.92
2022-10-25T00:30:43.507Z,2.20
2022-10-25T00:33:12.005Z,3.55
2022-10-25T00:35:39.089Z,3.05
2022-10-25T00:38:06.178Z,2.65
2022-10-25T00:40:33.299Z,2.42
2022-10-25T00:43:00.393Z,2.03
2022-10-25T00:45:28.646Z,2.50
2022-10-25T00:48:00.766Z,2.80
2022-10-25T00:50:46.737Z,2.20
2022-10-25T00:53:16.848Z,2.10
2022-10-25T00:55:48.663Z,2.15
2022-10-25T00:58:19.715Z,2.28
2022-10-25T01:00:48.415Z,2.58
2022-10-25T01:03:17.615Z,2.05
2022-10-25T01:05:47.559Z,3.55
2022-10-25T01:08:16.128Z,2.10
2022-10-25T01:10:43.884Z,2.33
2022-10-25T01:13:11.335Z,2.65
2022-10-25T01:15:46.469Z,2.90
2022-10-25T01:18:17.782Z,4.72
2022-10-25T01:21:17.788Z,4.57
2022-10-25T01:24:02.800Z,3.30
2022-10-25T01:26:58.503Z,1.95
2022-10-25T01:30:03.321Z,3.47
2022-10-25T01:32:38.453Z,5.22
2022-10-25T01:35:13.703Z,2.90
2022-10-25T01:37:46.161Z,2.55
2022-10-25T01:40:22.047Z,2.60
2022-10-25T01:42:59.025Z,2.95
2022-10-25T01:45:30.084Z,2.20
2022-10-25T01:48:04.923Z,2.58
2022-10-25T01:50:35.819Z,1.83
2022-10-25T01:53:03.103Z,2.30
2022-10-25T01:55:33.713Z,3.15
2022-10-25T01:58:09.673Z,1.75
2022-10-25T02:00:45.954Z,2.58
2022-10-25T02:03:25.722Z,4.07
2022-10-25T02:06:03.284Z,3.95
2022-10-25T02:08:37.019Z,3.53
2022-10-25T02:11:11.573Z,2.13
2022-10-25T02:13:48.187Z,2.45
2022-10-25T02:16:19.121Z,3.25
2022-10-25T02:18:52.812Z,2.13
2022-10-25T02:21:21.025Z,2.25
2022-10-25T02:23:50.349Z,2.05
2022-10-25T02:26:20.180Z,2.47
2022-10-25T02:28:48.650Z,2.72
2022-10-25T02:31:19.582Z,2.05
2022-10-25T02:33:48.469Z,2.15
2022-10-25T02:36:19.763Z,3.10
2022-10-25T02:38:48.394Z,1.92
2022-10-25T02:41:15.847Z,3.63
2022-10-25T02:43:43.046Z,3.10
2022-10-25T02:46:12.493Z,2.88
2022-10-25T02:48:40.284Z,2.17
2022-10-25T02:51:10.170Z,1.50
2022-10-25T02:53:37.367Z,2.10
2022-10-25T02:56:07.106Z,2.25
2022-10-25T02:58:35.912Z,1.92
2022-10-25T03:01:04.117Z,2.65
2022-10-25T03:03:31.950Z,1.88
2022-10-25T03:05:59.450Z,2.40
2022-10-25T03:11:00.890Z,2.55
2022-10-25T03:13:28.100Z,3.00
2022-10-25T03:15:55.316Z,3.35
2022-10-25T03:18:22.546Z,2.63
2022-10-25T03:20:50.033Z,2.20
2022-10-25T03:23:18.110Z,1.80
2022-10-25T03:25:47.919Z,1.20
2022-10-25T03:28:16.801Z,4.07
2022-10-25T03:30:44.013Z,1.90
2022-10-25T03:33:11.126Z,2.33
2022-10-25T03:35:38.214Z,2.17
2022-10-25T03:38:05.515Z,1.40
2022-10-25T03:40:32.966Z,1.85
2022-10-25T03:43:01.423Z,2.05
2022-10-25T03:45:28.614Z,1.50
2022-10-25T03:47:55.720Z,1.98
2022-10-25T03:50:22.821Z,3.67
2022-10-25T03:52:49.950Z,4.07
2022-10-25T03:55:17.652Z,2.75
2022-10-25T03:57:45.095Z,3.45
2022-10-25T04:00:15.190Z,2.72
2022-10-25T04:02:42.349Z,2.85
2022-10-25T04:05:09.450Z,3.47
2022-10-25T04:07:36.546Z,2.78
2022-10-25T04:10:04.752Z,2.10
2022-10-25T04:12:31.818Z,3.03
2022-10-25T04:14:58.958Z,1.83
2022-10-25T04:17:27.447Z,2.72
2022-10-25T04:19:54.546Z,5.97
2022-10-25T04:22:21.663Z,1.65
2022-10-25T04:24:48.793Z,3.50
2022-10-25T04:27:16.099Z,2.47
2022-10-25T04:29:43.198Z,2.45
2022-10-25T04:32:10.320Z,2.63
2022-10-25T04:34:38.790Z,2.47
2022-10-25T04:37:05.895Z,2.45
2022-10-25T04:39:33.083Z,4.78
2022-10-25T04:42:00.258Z,2.78
2022-10-25T04:44:27.403Z,3.38
2022-10-25T04:46:54.491Z,2.33
2022-10-25T04:49:21.698Z,3.15
2022-10-25T04:54:22.098Z,1.38
2022-10-25T04:56:49.189Z,2.75
2022-10-25T04:59:16.271Z,2.70
2022-10-25T05:01:43.429Z,3.45
2022-10-25T05:04:10.593Z,2.25
2022-10-25T05:06:37.781Z,1.77
2022-10-25T05:09:06.307Z,2.15
2022-10-25T05:11:33.433Z,2.88
2022-10-25T05:14:00.552Z,5.63
2022-10-25T05:16:27.777Z,2.35
2022-10-25T05:18:55.484Z,1.38
2022-10-25T05:21:24.189Z,4.25
2022-10-25T05:23:51.362Z,2.42
2022-10-25T05:26:21.155Z,2.63
2022-10-25T05:28:50.103Z,2.40
2022-10-25T05:31:18.926Z,2.67
2022-10-25T05:33:49.401Z,2.30
2022-10-25T05:36:16.585Z,3.83
2022-10-25T05:38:43.698Z,4.10
2022-10-25T05:41:12.151Z,5.70
2022-10-25T05:43:40.970Z,3.38
2022-10-25T05:46:10.345Z,4.63
2022-10-25T05:48:38.511Z,3.13
2022-10-25T05:51:32.533Z,4.32
2022-10-25T05:54:02.409Z,3.42
2022-10-25T05:56:30.582Z,4.35
2022-10-25T05:59:02.172Z,3.78
2022-10-25T06:01:29.391Z,2.38
2022-10-25T06:03:56.593Z,3.60
2022-10-25T06:06:23.852Z,2.15
2022-10-25T06:08:56.215Z,1.63
2022-10-25T06:11:23.986Z,3.17
2022-10-25T06:13:51.055Z,4.25
2022-10-25T06:16:20.851Z,1.85
2022-10-25T06:18:47.979Z,2.95
2022-10-25T06:21:16.766Z,2.42
2022-10-25T06:23:44.542Z,2.10
2022-10-25T06:26:13.381Z,3.40
2022-10-25T06:28:41.334Z,4.43
2022-10-25T06:31:11.130Z,2.78
2022-10-25T06:33:41.681Z,6.43
2022-10-25T06:36:11.917Z,2.40
2022-10-25T06:38:39.031Z,1.88
2022-10-25T06:41:07.855Z,2.70
2022-10-25T06:43:34.975Z,2.78
2022-10-25T06:46:05.330Z,3.00
2022-10-25T06:48:32.920Z,2.63
2022-10-25T06:51:05.776Z,3.25
2022-10-25T06:53:33.016Z,3.72
2022-10-25T06:56:04.530Z,2.67
2022-10-25T06:58:33.969Z,3.22
2022-10-25T07:01:01.431Z,2.05
2022-10-25T07:03:28.802Z,5.57
2022-10-25T07:05:59.148Z,3.05
2022-10-25T07:08:27.602Z,2.67
2022-10-25T07:10:55.049Z,3.63
2022-10-25T07:13:22.279Z,2.67
2022-10-25T07:15:49.375Z,4.65
2022-10-25T07:18:16.537Z,3.15
2022-10-25T07:20:43.654Z,3.63
2022-10-25T07:23:10.749Z,3.15
2022-10-25T07:25:39.315Z,1.27
2022-10-25T07:28:06.462Z,2.75
2022-10-25T07:30:33.568Z,4.25
2022-10-25T07:33:00.662Z,2.33
2022-10-25T07:35:27.901Z,4.13
2022-10-25T07:37:55.229Z,2.05
2022-10-25T07:40:22.316Z,2.53
2022-10-25T07:42:50.804Z,2.72
2022-10-25T07:45:22.195Z,2.42
2022-10-25T07:47:51.955Z,2.75
2022-10-25T07:50:19.253Z,4.10
2022-10-25T07:52:46.383Z,1.85
2022-10-25T07:55:13.850Z,2.38
2022-10-25T07:57:41.021Z,3.05
2022-10-25T08:00:10.709Z,3.40
2022-10-25T08:02:37.883Z,2.80
2022-10-25T08:05:05.699Z,3.00
2022-10-25T08:07:32.799Z,3.03
2022-10-25T08:10:00.088Z,1.52
2022-10-25T08:12:27.207Z,2.55
2022-10-25T08:14:54.275Z,2.92
2022-10-25T08:17:22.714Z,2.97
2022-10-25T08:19:51.378Z,3.03
2022-10-25T08:22:18.672Z,2.72
2022-10-25T08:24:45.824Z,2.15
2022-10-25T08:27:12.936Z,1.73
2022-10-25T08:29:40.062Z,5.38
2022-10-25T08:32:07.302Z,2.05
2022-10-25T08:34:35.739Z,3.35
2022-10-25T08:37:02.853Z,2.33
2022-10-25T08:39:30.063Z,2.47
2022-10-25T08:41:59.298Z,1.67
2022-10-25T08:44:34.391Z,2.10
2022-10-25T08:47:07.379Z,2.58
2022-10-25T08:49:46.710Z,2.88
2022-10-25T08:52:20.046Z,1.15
2022-10-25T08:54:48.521Z,2.00
2022-10-25T08:57:22.651Z,1.83
2022-10-25T09:02:25.287Z,1.60
2022-10-25T09:04:53.864Z,1.98
2022-10-25T09:07:57.015Z,2.20
2022-10-25T09:10:38.888Z,1.65
2022-10-25T09:13:15.242Z,3.60
2022-10-25T09:15:54.002Z,3.35
2022-10-25T09:18:30.811Z,1.45
2022-10-25T09:21:01.735Z,1.80
2022-10-25T09:23:31.007Z,1.80
2022-10-25T09:26:11.619Z,3.63
2022-10-25T09:28:50.742Z,2.92
2022-10-25T09:31:22.289Z,2.08
2022-10-25T09:33:52.814Z,1.27
2022-10-25T09:36:21.725Z,3.38
2022-10-25T09:38:53.377Z,1.80
2022-10-25T09:41:26.165Z,2.70
2022-10-25T09:43:58.303Z,2.20
2022-10-25T09:46:32.331Z,1.02
2022-10-25T09:51:37.768Z,3.08
2022-10-25T09:54:25.033Z,1.38
2022-10-25T09:56:52.144Z,3.50
2022-10-25T09:59:19.269Z,4.32
2022-10-25T10:01:46.499Z,2.33
2022-10-25T10:04:24.492Z,1.55
2022-10-25T10:06:56.570Z,1.60
2022-10-25T10:09:28.163Z,1.95
2022-10-25T10:11:58.074Z,2.35
2022-10-25T10:14:31.267Z,2.28
2022-10-25T10:17:00.906Z,2.15
2022-10-25T10:19:29.072Z,2.65
2022-10-25T10:22:00.332Z,2.25
2022-10-25T10:24:30.112Z,3.42
2022-10-25T10:26:59.358Z,2.25
2022-10-25T10:29:28.562Z,2.08
2022-10-25T10:31:59.442Z,4.28
2022-10-25T10:34:29.659Z,1.40
2022-10-25T10:37:13.940Z,2.42
2022-10-25T10:39:52.787Z,2.40
2022-10-25T10:42:21.856Z,1.10
2022-10-25T10:45:15.275Z,1.98
2022-10-25T10:47:44.846Z,2.85
2022-10-25T10:50:21.784Z,2.80
2022-10-25T10:52:59.770Z,2.20
2022-10-25T10:55:31.697Z,1.95
2022-10-25T10:58:03.917Z,2.22
2022-10-25T11:00:32.705Z,2.28
2022-10-25T11:03:00.360Z,1.10
2022-10-25T11:05:29.216Z,2.75
2022-10-25T11:07:59.615Z,2.53
2022-10-25T11:10:29.567Z,2.53
2022-10-25T11:13:14.280Z,3.10
2022-10-25T11:16:18.598Z,0.88
2022-10-25T11:18:53.533Z,1.30
2022-10-25T11:21:41.407Z,1.65
2022-10-25T11:24:21.545Z,3.15
2022-10-25T11:26:55.806Z,2.08
2022-10-25T11:29:39.027Z,2.35
2022-10-25T11:32:28.290Z,2.03
2022-10-25T11:35:08.049Z,1.33
2022-10-25T11:37:42.400Z,2.13
2022-10-25T11:40:16.399Z,2.90
2022-10-25T11:45:24.938Z,1.17
2022-10-25T11:48:11.725Z,1.45
2022-10-25T11:50:47.789Z,4.88
2022-10-25T11:53:26.218Z,2.88
2022-10-25T11:56:00.494Z,3.85
2022-10-25T11:58:43.381Z,2.67
2022-10-25T12:01:21.730Z,2.47
2022-10-25T12:04:00.124Z,2.35
2022-10-25T12:06:39.196Z,2.28
2022-10-25T12:09:18.149Z,2.40
2022-10-25T12:11:51.774Z,2.90
2022-10-25T12:14:28.024Z,2.38
2022-10-25T12:16:57.531Z,2.13
2022-10-25T12:19:27.124Z,1.05
2022-10-25T12:21:59.319Z,2.05
2022-10-25T12:24:35.839Z,1.55
2022-10-25T12:27:05.302Z,2.22
2022-10-25T12:29:37.247Z,2.50
2022-10-25T12:32:12.544Z,2.00
2022-10-25T12:34:43.541Z,1.38
2022-10-25T12:37:17.954Z,3.25
2022-10-25T12:39:46.084Z,2.88
2022-10-25T12:42:18.646Z,2.35
2022-10-25T12:45:21.467Z,1.65
2022-10-25T12:48:07.170Z,2.42
2022-10-25T12:50:54.233Z,2.80
2022-10-25T12:53:54.795Z,3.90
2022-10-25T12:56:34.055Z,1.83
2022-10-25T12:59:09.872Z,2.13
2022-10-25T13:01:58.907Z,2.67
2022-10-25T13:04:51.228Z,2.13
2022-10-25T13:07:19.954Z,4.47
2022-10-25T13:09:47.240Z,2.08
2022-10-25T13:12:23.454Z,9.30
2022-10-25T13:14:55.085Z,5.82
2022-10-25T13:17:45.055Z,7.20
2022-10-25T13:20:50.094Z,3.72
2022-10-25T13:23:56.660Z,5.25
2022-10-25T13:26:25.269Z,1.90
2022-10-25T13:28:53.988Z,4.70
2022-10-25T13:31:45.952Z,3.72
2022-10-25T13:34:30.018Z,1.75
2022-10-25T13:36:58.597Z,4.18
2022-10-25T13:39:29.673Z,4.75
2022-10-25T13:42:03.090Z,5.82
2022-10-25T13:44:30.670Z,3.70
2022-10-25T13:46:59.636Z,2.65
2022-10-25T13:49:32.063Z,3.20
2022-10-25T13:52:01.573Z,2.72
2022-10-25T13:54:43.440Z,5.13
2022-10-25T13:57:43.892Z,4.72
2022-10-25T14:00:33.101Z,5.20
2022-10-25T14:03:32.780Z,7.15
2022-10-25T14:06:18.574Z,6.00
2022-10-25T14:08:53.325Z,5.85
2022-10-25T14:11:25.103Z,7.65
2022-10-25T14:13:56.061Z,4.90
2022-10-25T14:16:27.696Z,3.83
2022-10-25T14:18:59.440Z,2.70
2022-10-25T14:21:26.796Z,3.58
2022-10-25T14:23:54.980Z,2.60
2022-10-25T14:26:23.153Z,3.65
2022-10-25T14:28:50.277Z,4.15
2022-10-25T14:31:20.243Z,4.88
2022-10-25T14:33:51.813Z,3.63
2022-10-25T14:36:27.640Z,2.55
2022-10-25T14:38:56.609Z,5.65
2022-10-25T14:41:25.690Z,2.15
2022-10-25T14:43:53.383Z,3.00
2022-10-25T14:46:23.540Z,2.88
2022-10-25T14:48:55.970Z,3.72
2022-10-25T14:51:28.535Z,3.60
2022-10-25T14:53:59.961Z,2.22
2022-10-25T14:56:31.699Z,2.70
2022-10-25T14:59:00.844Z,4.72
2022-10-25T15:01:28.375Z,2.65
2022-10-25T15:03:57.987Z,3.88
2022-10-25T15:06:29.602Z,2.92
2022-10-25T15:09:23.055Z,2.80
2022-10-25T15:12:08.366Z,2.25
2022-10-25T15:14:35.634Z,1.92
2022-10-25T15:17:04.007Z,3.53
2022-10-25T15:19:31.664Z,2.45
2022-10-25T15:22:14.226Z,4.85
2022-10-25T15:24:45.990Z,4.00
2022-10-25T15:27:26.632Z,3.30
2022-10-25T15:29:54.035Z,3.13
2022-10-25T15:32:23.120Z,1.98
2022-10-25T15:34:52.175Z,3.20
2022-10-25T15:37:22.683Z,2.83
2022-10-25T15:39:51.693Z,4.38
2022-10-25T15:42:19.478Z,1.58
2022-10-25T15:44:46.616Z,3.83
2022-10-25T15:47:26.236Z,3.30
2022-10-25T15:49:54.013Z,2.35
2022-10-25T15:52:23.111Z,3.15
2022-10-25T15:54:50.333Z,3.33
2022-10-25T15:57:17.913Z,4.90
2022-10-25T15:59:45.029Z,3.25
2022-10-25T16:02:18.313Z,4.03
2022-10-25T16:04:46.102Z,3.22
2022-10-25T16:07:14.374Z,2.35
2022-10-25T16:09:43.118Z,3.67
2022-10-25T16:12:18.476Z,5.07
2022-10-25T16:14:46.178Z,4.10
2022-10-25T16:17:13.734Z,8.07
2022-10-25T16:19:41.399Z,5.82
2022-10-25T16:22:08.559Z,4.55
2022-10-25T16:24:35.716Z,5.95
2022-10-25T16:27:04.171Z,3.92
2022-10-25T16:29:31.372Z,3.70
2022-10-25T16:31:58.462Z,4.70
2022-10-25T16:34:25.863Z,5.03
2022-10-25T16:36:53.011Z,3.22
2022-10-25T16:39:20.167Z,5.30
2022-10-25T16:41:48.082Z,10.52
2022-10-25T16:44:19.208Z,10.13
2022-10-25T16:46:46.643Z,9.45
2022-10-25T16:49:13.927Z,5.05
2022-10-25T16:51:41.570Z,5.30
2022-10-25T16:54:10.230Z,5.07
2022-10-25T16:56:37.451Z,4.85
2022-10-25T16:59:04.595Z,3.97
2022-10-25T17:01:35.083Z,5.45
2022-10-25T17:04:03.494Z,5.28
2022-10-25T17:06:45.928Z,5.88
2022-10-25T17:09:13.100Z,3.15
2022-10-25T17:11:40.597Z,2.97
2022-10-25T17:14:08.356Z,5.80
2022-10-25T17:16:38.501Z,3.25
2022-10-25T17:19:05.600Z,5.07
2022-10-25T17:21:32.729Z,3.58
2022-10-25T17:23:59.955Z,4.30
2022-10-25T17:26:27.068Z,4.50
2022-10-25T17:28:54.371Z,3.58
2022-10-25T17:31:21.465Z,5.20
2022-10-25T17:33:49.913Z,5.35
2022-10-25T17:36:18.624Z,3.35
2022-10-25T17:38:46.176Z,3.85
2022-10-25T17:41:14.375Z,4.70
2022-10-25T17:43:42.049Z,3.97
2022-10-25T17:46:14.234Z,3.38
2022-10-25T17:48:41.449Z,3.42
2022-10-25T17:51:12.246Z,5.00
2022-10-25T17:53:39.411Z,3.90
2022-10-25T17:56:13.325Z,4.82
2022-10-25T17:58:41.259Z,7.20
2022-10-25T18:01:09.185Z,9.88
2022-10-25T18:03:36.533Z,7.53
2022-10-25T18:06:05.879Z,7.53
2022-10-25T18:08:34.740Z,7.47
2022-10-25T18:11:08.252Z,4.30
2022-10-25T18:13:35.374Z,6.30
2022-10-25T18:16:02.522Z,11.05
2022-10-25T18:18:29.657Z,7.97
2022-10-25T18:21:02.843Z,4.60
2022-10-25T18:23:29.919Z,3.70
2022-10-25T18:25:58.547Z,4.43
2022-10-25T18:28:25.705Z,9.45
2022-10-25T18:30:58.536Z,6.82
2022-10-25T18:33:25.653Z,10.48
2022-10-25T18:35:57.449Z,11.13
2022-10-25T18:38:24.640Z,10.80
2022-10-25T18:40:51.738Z,9.52
2022-10-25T18:43:20.219Z,11.20
2022-10-25T18:45:47.356Z,11.20
2022-10-25T18:48:14.479Z,12.60
2022-10-25T18:50:42.608Z,12.20
2022-10-25T18:53:09.972Z,6.32
2022-10-25T18:55:37.104Z,9.40
2022-10-25T18:58:04.179Z,8.15
2022-10-25T19:00:32.614Z,5.78
2022-10-25T19:02:59.679Z,6.00
2022-10-25T19:05:28.921Z,5.90
2022-10-25T19:07:56.824Z,5.50
2022-10-25T19:10:23.912Z,6.05
2022-10-25T19:12:51.401Z,9.32
2022-10-25T19:15:18.688Z,7.57
2022-10-25T19:17:51.137Z,6.88
2022-10-25T19:20:18.452Z,6.65
2022-10-25T19:22:45.554Z,6.78
2022-10-25T19:25:12.740Z,5.25
2022-10-25T19:27:40.064Z,8.05
2022-10-25T19:30:08.254Z,8.20
2022-10-25T19:32:35.370Z,6.72
2022-10-25T19:35:04.159Z,7.72
2022-10-25T19:37:31.235Z,6.50
2022-10-25T19:39:59.102Z,6.85
2022-10-25T19:42:26.371Z,7.85
2022-10-25T19:44:53.498Z,7.57
2022-10-25T19:47:20.639Z,6.90
2022-10-25T19:49:47.723Z,6.28
2022-10-25T19:52:16.339Z,7.40
2022-10-25T19:54:43.436Z,7.07
2022-10-25T19:57:10.708Z,7.25
2022-10-25T19:59:37.855Z,6.75
2022-10-25T20:02:05.020Z,6.75
2022-10-25T20:04:32.341Z,17.92
2022-10-25T20:06:59.443Z,5.20
2022-10-25T20:09:27.872Z,6.47
2022-10-25T20:11:54.973Z,7.18
2022-10-25T20:14:22.055Z,8.07
2022-10-25T20:16:49.132Z,7.07
2022-10-25T20:19:16.605Z,7.47
2022-10-25T20:21:43.688Z,5.93
2022-10-25T20:24:10.906Z,6.63
2022-10-25T20:26:40.671Z,7.40
2022-10-25T20:29:17.066Z,8.13
2022-10-25T20:31:47.391Z,5.97
2022-10-25T20:34:14.492Z,6.60
2022-10-25T20:36:41.674Z,8.07
2022-10-25T20:39:08.808Z,6.47
2022-10-25T20:41:36.040Z,7.05
2022-10-25T20:44:05.126Z,6.30
2022-10-25T20:46:33.327Z,4.55
2022-10-25T20:49:01.060Z,6.70
2022-10-25T20:51:28.351Z,6.05
2022-10-25T20:53:55.819Z,6.63
2022-10-25T20:56:23.420Z,6.22
2022-10-25T20:58:50.891Z,7.28
2022-10-25T21:01:19.611Z,9.30
2022-10-25T21:03:46.810Z,6.72
2022-10-25T21:06:13.890Z,5.97
2022-10-25T21:08:41.034Z,6.43
2022-10-25T21:11:11.093Z,6.90
2022-10-25T21:13:38.189Z,6.78
2022-10-25T21:16:06.385Z,7.55
2022-10-25T21:18:35.152Z,5.07
2022-10-25T21:21:04.646Z,5.93
2022-10-25T21:23:31.789Z,6.90
2022-10-25T21:25:59.381Z,5.30
2022-10-25T21:28:26.709Z,7.78
2022-10-25T21:30:53.850Z,5.53
2022-10-25T21:33:20.922Z,5.28
2022-10-25T21:35:49.388Z,5.80
2022-10-25T21:38:16.479Z,5.22
2022-10-25T21:40:43.553Z,5.47
2022-10-25T21:43:10.643Z,5.28
2022-10-25T21:45:40.329Z,5.45
2022-10-25T21:48:07.529Z,4.72
2022-10-25T21:50:34.640Z,6.18
2022-10-25T21:53:03.122Z,4.22
2022-10-25T21:55:30.216Z,4.53
2022-10-25T21:57:57.506Z,4.43
2022-10-25T22:00:24.851Z,4.47
2022-10-25T22:02:51.969Z,4.82
2022-10-25T22:05:19.056Z,5.10
2022-10-25T22:07:46.619Z,4.97
2022-10-25T22:10:15.523Z,4.40
2022-10-25T22:12:42.598Z,6.10
2022-10-25T22:15:10.090Z,6.10
2022-10-25T22:17:37.198Z,5.60
2022-10-25T22:20:05.353Z,5.55
2022-10-25T22:22:32.471Z,4.85
2022-10-25T22:24:59.573Z,5.93
2022-10-25T22:27:28.050Z,4.72
2022-10-25T22:29:55.266Z,5.82
2022-10-25T22:32:22.344Z,5.78
2022-10-25T22:34:49.445Z,7.70
2022-10-25T22:37:16.558Z,7.18
2022-10-25T22:39:43.622Z,5.57
2022-10-25T22:42:10.683Z,5.82
2022-10-25T22:44:39.818Z,7.32
2022-10-25T22:47:06.943Z,5.10
2022-10-25T22:49:34.077Z,6.25
2022-10-25T22:52:01.178Z,6.80
2022-10-25T22:54:28.983Z,5.50
2022-10-25T22:56:56.065Z,6.25
2022-10-25T22:59:23.167Z,6.60
2022-10-25T23:01:52.843Z,5.63
2022-10-25T23:04:19.989Z,4.03
2022-10-25T23:06:47.125Z,4.30
2022-10-25T23:09:14.235Z,5.35
2022-10-25T23:11:41.474Z,4.55
2022-10-25T23:14:13.086Z,4.03
2022-10-25T23:16:43.527Z,4.32
2022-10-25T23:19:11.983Z,4.13
2022-10-25T23:21:39.080Z,4.38
2022-10-25T23:24:06.452Z,3.80
2022-10-25T23:26:34.694Z,5.57
2022-10-25T23:29:02.166Z,4.40
2022-10-25T23:31:30.115Z,4.78
2022-10-25T23:33:59.334Z,4.30
2022-10-25T23:36:29.506Z,3.45
2022-10-25T23:38:57.670Z,5.15
2022-10-25T23:41:24.782Z,4.35
2022-10-25T23:43:51.888Z,4.03
2022-10-25T23:46:19.266Z,4.03
2022-10-25T23:48:46.626Z,4.75
2022-10-25T23:51:16.012Z,4.43
2022-10-25T23:53:44.981Z,5.25
2022-10-25T23:56:13.261Z,3.95
2022-10-25T23:58:40.563Z,3.47
